Kasson, Minnesota
Current Conditions -  °F | °C
As of 1:33 PM on Thursday 23 Oct 2014 (Local Time) from KTOB Reporting Station
Overcast Overcast  
Wind Chill: 54°   Ceiling: 400
Heat Index: 54°   Visibility: 7mi
Dew Point: 52°   Wind: 7mph
Humidity: 94%   Direction: 260°W
Pressure: 30.02"   Gusts: NA
Location:  44.03°N, 92.75°W
Report Text: KTOB 231833Z AUTO 26006KT 7SM OVC004 12/11 A3002 RMK AO2
Loading
Personal Weather Stations






























Interactive Weather Map
Tropical Storm Tracking
New forecast layout! Learn more

10-Day Weather Forecast

Advertisements
Track Severe Weather on mobile